Main page
METAR-TAF:

METAR-TAF

Airports :

Libertador General José de San Martín Airport

Posadas, Argentina

latitude: 27-22S, longitude: 055-58W, elevation: 131 m

Current weather observation

The report was made 39 minutes ago, at 19:00 UTC
Wind 5 kt from the Northeast
Temperature 24°C
Humidity 31%
Pressure 1015 hPa
Visibility 10 km or more
no clouds below 1500 m and no cumulonimbus

METAR: SARP 241900Z 05005KT CAVOK 24/06 Q1015

Time: 16:39 (19:39 UTC)

Forecast

The report was made 2 hours and 39 minutes ago, at 17:00 UTC
Forecast valid from 24 at 18 UTC to 25 at 18 UTC
Wind 10 kt from the East
Visibility 10 km or more
no clouds below 1500 m and no cumulonimbus

TAF: SARP 241700Z 2418/2518 09010KT CAVOK TX25/2418Z TN11/2510Z

Weather observations and forecasts of more than 4000 airports (METAR and TAF reports).

The available stations are represented by yellow and red dots on the map.

Hover mouse over dot to see the name of the station.

Then click to see weather observations and forecasts.

To change the map : click on the green buttons with a black cross to zoom in, on the green button with a dash to zoom out, or on the green arrows for adjacent maps.


METAR-TAF: